Startpagina
METAR-TAF:

METAR-TAF

Vliegvelden :

Pohnpei, Micronesië

breedte: 06-59N, lengte: 158-12E, hoogte: 2 m

Actueel weer

Dit bericht is 8 minuten geleden gemaakt, om 01:50 UTC
Wind 7 kt uit het oosten
Temperatuur 31°C
Vochtigheid 71%
Druk 1011 hPa
Zicht: 24.1 km
Verspreide wolken op 1800 ft, Stapelwolken.
Verspreide wolken op 13000 ft
Geheel bewolkt op 30000 ft

METAR: PTPN 230150Z 09007KT 15SM SCT018TCU SCT130 OVC300 31/25 A2984 RMK TCU SE-S

Tijdstip: 12:58 (01:58 UTC)

Verwachting

Dit bericht is 2 uur en het 35 minuten geleden gemaakt, om 23:23 UTC
Verwachting geldig van 23 om 00 UTC tot 23 om 24 UTC
Wind 10 kt uit het oostnoordoosten
Zicht: 10 km
Verspreide wolken op 1800 ft
Gebroken wolken op 13000 ft
buien in de omgeving
Tijdelijke
van 23 om 00 UTC tot 23 om 04 UTC
Zicht: 6.4 km
Gebroken wolken op 1600 ft
Geheel bewolkt op 10000 ft
regenbuien

TAF: PTPN 222323Z 2300/2324 06010KT P6SM VCSH SCT018 BKN130 TEMPO 2300/2304 4SM SHRA BKN016 OVC100

Waarnemingen en weersverwachtingen van meer dan 4000 vliegvelden (METAR en TAF).

De beschikbare stations zijn de gele en rode punten op de kaart.

Ga met uw muis naar het station om de naam te zien.

Klik dan om waarnemingen en weersverwachtingen te zien.

kaart wijzigen: klik op de groene knoppen met een zwart kruis om in te zoomen, op de groene knop met een streepje om uit te zoomen of op de groene pijlen voor aangrenzende kaarten.


METAR-TAF: